RYR86B LGSK-LIBD
Flight info
| Callsign | RYR86B |
|---|---|
| Flight time | 1h 12m |
| Altitude | 38000 |
| Route | EVIKO W58 AGH UV651 YNN DCT VJOSA DCT LIMJA DCT PAPIZ DCT ENOXA |
| Aircraft | B38M/M-SDE1FGHILORVWXY/HB1 |
Departure
| Time | 2026-05-04 11:29 |
|---|---|
| Airport | Skiathos Island National Airport (LGSK) |
Arrival
| Time | 2026-05-04 12:41 |
|---|---|
| Airport | Bari Karol Wojtyła International Airport (LIBD) |
| Time | Latitude | Longitude | Altitude | Speed | Heading |
|---|---|---|---|---|---|
| 2026-05-04 11:19 | 39.17835 | 23.50179 | 47 ft | 1 kts | 288° |
| 2026-05-04 11:19 | 39.17834 | 23.50180 | 52 ft | 2 kts | 288° |
| 2026-05-04 11:20 | 39.17826 | 23.50211 | 48 ft | 4 kts | 288° |
| 2026-05-04 11:20 | 39.17821 | 23.50231 | 43 ft | 0 kts | 288° |
| 2026-05-04 11:24 | 39.17686 | 23.50317 | 43 ft | 15 kts | 147° |
| 2026-05-04 11:25 | 39.17575 | 23.50299 | 39 ft | 19 kts | 199° |
| 2026-05-04 11:25 | 39.17432 | 23.50235 | 35 ft | 24 kts | 199° |
| 2026-05-04 11:25 | 39.17271 | 23.50162 | 30 ft | 21 kts | 199° |
| 2026-05-04 11:26 | 39.17046 | 23.50039 | 19 ft | 8 kts | 210° |
| 2026-05-04 11:27 | 39.17054 | 23.50067 | 20 ft | 0 kts | 19° |
| 2026-05-04 11:28 | 39.17063 | 23.50070 | 20 ft | 12 kts | 19° |
| 2026-05-04 11:28 | 39.17461 | 23.50242 | 36 ft | 105 kts | 19° |
| 2026-05-04 11:28 | 39.18379 | 23.50645 | 201 ft | 162 kts | 17° |
| 2026-05-04 11:29 | 39.19433 | 23.51151 | 943 ft | 150 kts | 17° |
| 2026-05-04 11:29 | 39.20383 | 23.51561 | 1394 ft | 144 kts | 13° |
| 2026-05-04 11:29 | 39.21367 | 23.51988 | 1622 ft | 153 kts | 14° |
| 2026-05-04 11:29 | 39.22418 | 23.52452 | 1748 ft | 168 kts | 16° |
| 2026-05-04 11:31 | 39.30399 | 23.53725 | 5534 ft | 211 kts | 283° |
| 2026-05-04 11:33 | 39.33862 | 23.37777 | 11251 ft | 308 kts | 291° |
| 2026-05-04 11:33 | 39.34513 | 23.35071 | 11866 ft | 323 kts | 291° |
| 2026-05-04 11:33 | 39.35183 | 23.32254 | 12653 ft | 330 kts | 290° |
| 2026-05-04 11:34 | 39.35849 | 23.29399 | 13605 ft | 334 kts | 290° |
| 2026-05-04 11:34 | 39.36521 | 23.26497 | 14400 ft | 340 kts | 290° |
| 2026-05-04 11:34 | 39.37196 | 23.23555 | 15158 ft | 344 kts | 289° |
| 2026-05-04 11:34 | 39.37881 | 23.20563 | 15893 ft | 350 kts | 289° |
| 2026-05-04 11:35 | 39.38574 | 23.17530 | 16636 ft | 355 kts | 288° |
| 2026-05-04 11:35 | 39.39276 | 23.14453 | 17358 ft | 360 kts | 288° |
| 2026-05-04 11:35 | 39.39990 | 23.11324 | 18071 ft | 365 kts | 287° |
| 2026-05-04 11:35 | 39.40715 | 23.08162 | 18765 ft | 367 kts | 289° |
| 2026-05-04 11:36 | 39.41437 | 23.04993 | 19484 ft | 368 kts | 289° |
| 2026-05-04 11:36 | 39.42162 | 23.01802 | 20092 ft | 372 kts | 289° |
| 2026-05-04 11:36 | 39.42892 | 22.98587 | 20727 ft | 374 kts | 289° |
| 2026-05-04 11:36 | 39.43617 | 22.95384 | 21347 ft | 377 kts | 289° |
| 2026-05-04 11:37 | 39.44354 | 22.92123 | 21962 ft | 380 kts | 290° |
| 2026-05-04 11:37 | 39.45098 | 22.88831 | 22564 ft | 382 kts | 290° |
| 2026-05-04 11:37 | 39.45845 | 22.85516 | 23180 ft | 385 kts | 290° |
| 2026-05-04 11:37 | 39.46597 | 22.82174 | 23779 ft | 388 kts | 290° |
| 2026-05-04 11:38 | 39.47355 | 22.78805 | 24283 ft | 391 kts | 290° |
| 2026-05-04 11:38 | 39.48118 | 22.75438 | 24924 ft | 388 kts | 292° |
| 2026-05-04 11:38 | 39.48861 | 22.72105 | 25658 ft | 385 kts | 292° |
| 2026-05-04 11:38 | 39.49604 | 22.68762 | 26096 ft | 389 kts | 291° |
| 2026-05-04 11:39 | 39.50365 | 22.65361 | 26395 ft | 396 kts | 291° |
| 2026-05-04 11:39 | 39.51129 | 22.61930 | 26958 ft | 397 kts | 291° |
| 2026-05-04 11:40 | 39.55782 | 22.40945 | 29852 ft | 407 kts | 292° |
| 2026-05-04 11:41 | 39.56560 | 22.37408 | 30261 ft | 410 kts | 292° |
| 2026-05-04 11:41 | 39.57344 | 22.33844 | 30601 ft | 412 kts | 292° |
| 2026-05-04 11:41 | 39.58132 | 22.30253 | 30961 ft | 414 kts | 292° |
| 2026-05-04 11:41 | 39.58921 | 22.26652 | 31313 ft | 417 kts | 292° |
| 2026-05-04 11:42 | 39.59713 | 22.23031 | 31642 ft | 419 kts | 292° |
| 2026-05-04 11:42 | 39.60508 | 22.19388 | 31976 ft | 421 kts | 292° |
| 2026-05-04 11:42 | 39.61306 | 22.15732 | 32289 ft | 424 kts | 292° |
| 2026-05-04 11:42 | 39.62108 | 22.12048 | 32619 ft | 425 kts | 291° |
| 2026-05-04 11:43 | 39.62908 | 22.08361 | 33053 ft | 424 kts | 291° |
| 2026-05-04 11:43 | 39.63700 | 22.04684 | 33549 ft | 422 kts | 291° |
| 2026-05-04 11:43 | 39.64490 | 22.01021 | 34002 ft | 421 kts | 291° |
| 2026-05-04 11:43 | 39.65275 | 21.97370 | 34413 ft | 420 kts | 291° |
| 2026-05-04 11:44 | 39.66059 | 21.93718 | 34771 ft | 420 kts | 291° |
| 2026-05-04 11:44 | 39.66844 | 21.90062 | 35099 ft | 421 kts | 291° |
| 2026-05-04 11:44 | 39.67630 | 21.86399 | 35424 ft | 421 kts | 291° |
| 2026-05-04 11:44 | 39.68415 | 21.82732 | 35753 ft | 422 kts | 291° |
| 2026-05-04 11:45 | 39.69201 | 21.79061 | 36039 ft | 422 kts | 291° |
| 2026-05-04 11:45 | 39.69985 | 21.75391 | 36377 ft | 422 kts | 291° |
| 2026-05-04 11:45 | 39.70765 | 21.71722 | 36718 ft | 422 kts | 290° |
| 2026-05-04 11:45 | 39.71546 | 21.68051 | 36999 ft | 422 kts | 291° |
| 2026-05-04 11:46 | 39.72329 | 21.64373 | 37263 ft | 423 kts | 290° |
| 2026-05-04 11:46 | 39.73111 | 21.60692 | 37554 ft | 423 kts | 290° |
| 2026-05-04 11:46 | 39.73892 | 21.57012 | 37813 ft | 423 kts | 290° |
| 2026-05-04 11:46 | 39.74674 | 21.53318 | 38050 ft | 424 kts | 290° |
| 2026-05-04 11:47 | 39.75457 | 21.49618 | 38161 ft | 425 kts | 290° |
| 2026-05-04 11:47 | 39.77017 | 21.42220 | 38150 ft | 423 kts | 290° |
| 2026-05-04 11:48 | 39.78567 | 21.34843 | 38129 ft | 423 kts | 290° |
| 2026-05-04 11:48 | 39.80114 | 21.27462 | 38126 ft | 423 kts | 290° |
| 2026-05-04 11:49 | 39.81644 | 21.20127 | 38085 ft | 424 kts | 290° |
| 2026-05-04 11:49 | 39.83184 | 21.12723 | 38004 ft | 424 kts | 290° |
| 2026-05-04 11:50 | 39.84713 | 21.05347 | 37989 ft | 421 kts | 290° |
| 2026-05-04 11:50 | 39.86230 | 20.97999 | 37973 ft | 421 kts | 290° |
| 2026-05-04 11:51 | 39.87749 | 20.90618 | 37960 ft | 422 kts | 290° |
| 2026-05-04 11:51 | 39.89263 | 20.83237 | 37957 ft | 422 kts | 290° |
| 2026-05-04 11:52 | 39.90771 | 20.75856 | 37965 ft | 422 kts | 290° |
| 2026-05-04 11:52 | 39.92275 | 20.68469 | 37995 ft | 422 kts | 290° |
| 2026-05-04 11:53 | 39.93774 | 20.61078 | 38094 ft | 422 kts | 289° |
| 2026-05-04 11:53 | 39.95270 | 20.53681 | 38101 ft | 422 kts | 289° |
| 2026-05-04 11:55 | 40.06070 | 20.27976 | 38108 ft | 408 kts | 314° |
| 2026-05-04 11:56 | 40.09847 | 20.22460 | 38097 ft | 407 kts | 314° |
| 2026-05-04 11:56 | 40.13624 | 20.16946 | 38098 ft | 407 kts | 314° |
| 2026-05-04 11:57 | 40.17371 | 20.11465 | 38084 ft | 406 kts | 314° |
| 2026-05-04 11:57 | 40.21130 | 20.05959 | 38099 ft | 405 kts | 314° |
| 2026-05-04 11:58 | 40.24880 | 20.00445 | 38100 ft | 407 kts | 314° |
| 2026-05-04 11:58 | 40.28641 | 19.94928 | 38115 ft | 406 kts | 314° |
| 2026-05-04 11:59 | 40.32404 | 19.89386 | 38104 ft | 407 kts | 314° |
| 2026-05-04 11:59 | 40.36161 | 19.83843 | 38110 ft | 407 kts | 314° |
| 2026-05-04 12:00 | 40.39916 | 19.78291 | 38102 ft | 407 kts | 314° |
| 2026-05-04 12:00 | 40.43667 | 19.72738 | 38111 ft | 406 kts | 314° |
| 2026-05-04 12:01 | 40.47410 | 19.67185 | 38119 ft | 406 kts | 314° |
| 2026-05-04 12:02 | 40.60070 | 19.47233 | 38128 ft | 409 kts | 309° |
| 2026-05-04 12:03 | 40.63440 | 19.41217 | 38127 ft | 409 kts | 309° |
| 2026-05-04 12:03 | 40.66821 | 19.35203 | 38128 ft | 409 kts | 309° |
| 2026-05-04 12:04 | 40.70200 | 19.29184 | 38131 ft | 409 kts | 309° |
| 2026-05-04 12:04 | 40.73026 | 19.24141 | 38134 ft | 408 kts | 309° |
| 2026-05-04 12:05 | 40.76946 | 19.17132 | 38140 ft | 409 kts | 309° |
| 2026-05-04 12:05 | 40.79748 | 19.12114 | 38140 ft | 409 kts | 309° |
| 2026-05-04 12:06 | 40.83121 | 19.06060 | 38140 ft | 410 kts | 308° |
| 2026-05-04 12:06 | 40.86498 | 18.99989 | 38137 ft | 410 kts | 308° |
| 2026-05-04 12:07 | 40.89460 | 18.93565 | 38131 ft | 414 kts | 291° |
| 2026-05-04 12:07 | 40.91313 | 18.86340 | 38124 ft | 416 kts | 292° |
| 2026-05-04 12:08 | 40.92230 | 18.82728 | 37518 ft | 414 kts | 292° |
| 2026-05-04 12:08 | 40.93130 | 18.79120 | 36903 ft | 412 kts | 292° |
| 2026-05-04 12:08 | 40.94017 | 18.75534 | 36334 ft | 408 kts | 291° |
| 2026-05-04 12:08 | 40.94893 | 18.71974 | 35685 ft | 407 kts | 291° |
| 2026-05-04 12:09 | 40.95767 | 18.68416 | 34971 ft | 407 kts | 291° |
| 2026-05-04 12:09 | 40.96639 | 18.64859 | 34379 ft | 405 kts | 291° |
| 2026-05-04 12:09 | 40.97504 | 18.61327 | 33825 ft | 401 kts | 291° |
| 2026-05-04 12:09 | 40.98357 | 18.57838 | 33258 ft | 397 kts | 291° |
| 2026-05-04 12:10 | 40.99190 | 18.54423 | 32750 ft | 393 kts | 291° |
| 2026-05-04 12:10 | 41.00024 | 18.51003 | 32242 ft | 389 kts | 291° |
| 2026-05-04 12:10 | 41.00844 | 18.47634 | 31745 ft | 385 kts | 292° |
| 2026-05-04 12:10 | 41.01659 | 18.44277 | 31246 ft | 382 kts | 292° |
| 2026-05-04 12:11 | 41.02467 | 18.40943 | 30743 ft | 379 kts | 291° |
| 2026-05-04 12:11 | 41.03272 | 18.37626 | 30258 ft | 377 kts | 291° |
| 2026-05-04 12:11 | 41.04070 | 18.34327 | 29705 ft | 374 kts | 291° |
| 2026-05-04 12:11 | 41.04860 | 18.31058 | 29200 ft | 371 kts | 291° |
| 2026-05-04 12:12 | 41.05642 | 18.27816 | 28734 ft | 368 kts | 291° |
| 2026-05-04 12:12 | 41.06417 | 18.24599 | 28265 ft | 366 kts | 291° |
| 2026-05-04 12:12 | 41.07196 | 18.21360 | 27790 ft | 371 kts | 291° |
| 2026-05-04 12:12 | 41.07984 | 18.18082 | 27418 ft | 375 kts | 291° |
| 2026-05-04 12:13 | 41.08776 | 18.14782 | 27177 ft | 376 kts | 291° |
| 2026-05-04 12:14 | 41.14208 | 17.92011 | 23942 ft | 364 kts | 291° |
| 2026-05-04 12:15 | 41.14967 | 17.88809 | 23451 ft | 363 kts | 291° |
| 2026-05-04 12:15 | 41.15723 | 17.85617 | 22956 ft | 361 kts | 291° |
| 2026-05-04 12:15 | 41.16473 | 17.82448 | 22519 ft | 358 kts | 291° |
| 2026-05-04 12:15 | 41.17215 | 17.79306 | 22103 ft | 355 kts | 291° |
| 2026-05-04 12:16 | 41.17951 | 17.76192 | 21693 ft | 352 kts | 291° |
| 2026-05-04 12:16 | 41.18679 | 17.73103 | 21284 ft | 349 kts | 290° |
| 2026-05-04 12:16 | 41.19392 | 17.70076 | 20905 ft | 346 kts | 290° |
| 2026-05-04 12:16 | 41.20090 | 17.67027 | 20501 ft | 345 kts | 287° |
| 2026-05-04 12:17 | 41.20419 | 17.63853 | 20048 ft | 347 kts | 280° |
| 2026-05-04 12:17 | 41.20723 | 17.60692 | 19688 ft | 344 kts | 281° |
| 2026-05-04 12:17 | 41.21046 | 17.57561 | 19318 ft | 341 kts | 281° |
| 2026-05-04 12:17 | 41.21379 | 17.54452 | 18944 ft | 339 kts | 282° |
| 2026-05-04 12:18 | 41.21716 | 17.51360 | 18565 ft | 337 kts | 282° |
| 2026-05-04 12:18 | 41.22054 | 17.48286 | 18155 ft | 336 kts | 282° |
| 2026-05-04 12:18 | 41.22392 | 17.45225 | 17752 ft | 334 kts | 282° |
| 2026-05-04 12:18 | 41.22728 | 17.42186 | 17370 ft | 331 kts | 282° |
| 2026-05-04 12:19 | 41.23060 | 17.39170 | 16991 ft | 331 kts | 281° |
| 2026-05-04 12:19 | 41.23395 | 17.36122 | 16613 ft | 336 kts | 281° |
| 2026-05-04 12:19 | 41.23733 | 17.33035 | 16236 ft | 338 kts | 281° |
| 2026-05-04 12:19 | 41.24071 | 17.29943 | 15860 ft | 338 kts | 281° |
| 2026-05-04 12:20 | 41.24409 | 17.26850 | 15483 ft | 337 kts | 281° |
| 2026-05-04 12:20 | 41.24743 | 17.23777 | 15096 ft | 335 kts | 280° |
| 2026-05-04 12:20 | 41.25075 | 17.20721 | 14729 ft | 333 kts | 280° |
| 2026-05-04 12:20 | 41.25404 | 17.17681 | 14352 ft | 331 kts | 280° |
| 2026-05-04 12:21 | 41.25730 | 17.14661 | 13981 ft | 330 kts | 280° |
| 2026-05-04 12:21 | 41.26054 | 17.11649 | 13566 ft | 328 kts | 280° |
| 2026-05-04 12:21 | 41.26376 | 17.08657 | 13174 ft | 326 kts | 280° |
| 2026-05-04 12:21 | 41.26694 | 17.05685 | 12799 ft | 323 kts | 280° |
| 2026-05-04 12:22 | 41.27009 | 17.02738 | 12428 ft | 321 kts | 279° |
| 2026-05-04 12:22 | 41.27321 | 16.99813 | 12067 ft | 318 kts | 279° |
| 2026-05-04 12:22 | 41.27630 | 16.96909 | 11707 ft | 316 kts | 279° |
| 2026-05-04 12:22 | 41.27937 | 16.94025 | 11348 ft | 314 kts | 279° |
| 2026-05-04 12:23 | 41.28240 | 16.91158 | 10989 ft | 312 kts | 279° |
| 2026-05-04 12:23 | 41.28541 | 16.88318 | 10744 ft | 306 kts | 279° |
| 2026-05-04 12:23 | 41.28832 | 16.85557 | 10604 ft | 297 kts | 279° |
| 2026-05-04 12:23 | 41.29027 | 16.82868 | 10453 ft | 289 kts | 267° |
| 2026-05-04 12:24 | 41.28490 | 16.80340 | 10292 ft | 283 kts | 243° |
| 2026-05-04 12:24 | 41.27543 | 16.78131 | 10176 ft | 275 kts | 242° |
| 2026-05-04 12:24 | 41.26599 | 16.75939 | 9879 ft | 273 kts | 241° |
| 2026-05-04 12:24 | 41.25644 | 16.73750 | 9493 ft | 274 kts | 241° |
| 2026-05-04 12:25 | 41.24681 | 16.71562 | 9158 ft | 274 kts | 241° |
| 2026-05-04 12:25 | 41.23718 | 16.69385 | 8843 ft | 272 kts | 241° |
| 2026-05-04 12:25 | 41.22758 | 16.67225 | 8551 ft | 270 kts | 240° |
| 2026-05-04 12:25 | 41.21811 | 16.65096 | 8348 ft | 265 kts | 240° |
| 2026-05-04 12:26 | 41.20891 | 16.63020 | 8223 ft | 256 kts | 242° |
| 2026-05-04 12:26 | 41.20210 | 16.60869 | 7982 ft | 252 kts | 252° |
| 2026-05-04 12:26 | 41.19627 | 16.58679 | 7702 ft | 252 kts | 251° |
| 2026-05-04 12:26 | 41.19023 | 16.56497 | 7410 ft | 251 kts | 250° |
| 2026-05-04 12:27 | 41.18411 | 16.54333 | 7125 ft | 250 kts | 250° |
| 2026-05-04 12:27 | 41.17794 | 16.52181 | 6863 ft | 249 kts | 249° |
| 2026-05-04 12:27 | 41.17177 | 16.50044 | 6596 ft | 247 kts | 249° |
| 2026-05-04 12:27 | 41.16560 | 16.47920 | 6330 ft | 245 kts | 249° |
| 2026-05-04 12:28 | 41.15953 | 16.45838 | 6180 ft | 238 kts | 249° |
| 2026-05-04 12:28 | 41.15367 | 16.43828 | 6062 ft | 230 kts | 249° |
| 2026-05-04 12:28 | 41.14803 | 16.41886 | 5936 ft | 222 kts | 249° |
| 2026-05-04 12:28 | 41.14255 | 16.39963 | 5871 ft | 225 kts | 249° |
| 2026-05-04 12:29 | 41.13702 | 16.38022 | 5819 ft | 225 kts | 249° |
| 2026-05-04 12:29 | 41.13146 | 16.36077 | 5753 ft | 226 kts | 249° |
| 2026-05-04 12:29 | 41.12590 | 16.34131 | 5672 ft | 226 kts | 249° |
| 2026-05-04 12:29 | 41.12034 | 16.32189 | 5612 ft | 225 kts | 249° |
| 2026-05-04 12:30 | 41.11475 | 16.30247 | 5536 ft | 225 kts | 248° |
| 2026-05-04 12:30 | 41.10919 | 16.28311 | 5454 ft | 225 kts | 249° |
| 2026-05-04 12:30 | 41.10367 | 16.26390 | 5372 ft | 221 kts | 248° |
| 2026-05-04 12:30 | 41.09806 | 16.24513 | 5292 ft | 217 kts | 242° |
| 2026-05-04 12:31 | 41.08804 | 16.23079 | 5185 ft | 214 kts | 208° |
| 2026-05-04 12:31 | 41.07415 | 16.22628 | 5166 ft | 202 kts | 178° |
| 2026-05-04 12:31 | 41.06075 | 16.23046 | 5105 ft | 197 kts | 162° |
| 2026-05-04 12:31 | 41.04785 | 16.23646 | 5048 ft | 196 kts | 162° |
| 2026-05-04 12:32 | 41.03499 | 16.24260 | 4994 ft | 196 kts | 161° |
| 2026-05-04 12:32 | 41.01042 | 16.25849 | 4828 ft | 199 kts | 130° |
| 2026-05-04 12:32 | 41.00471 | 16.27487 | 4728 ft | 198 kts | 97° |
| 2026-05-04 12:33 | 41.00614 | 16.29286 | 4665 ft | 199 kts | 72° |
| 2026-05-04 12:33 | 41.01070 | 16.31022 | 4643 ft | 200 kts | 70° |
| 2026-05-04 12:33 | 41.01544 | 16.32754 | 4585 ft | 200 kts | 69° |
| 2026-05-04 12:33 | 41.02044 | 16.34475 | 4504 ft | 200 kts | 69° |
| 2026-05-04 12:34 | 41.02542 | 16.36190 | 4421 ft | 200 kts | 69° |
| 2026-05-04 12:34 | 41.03039 | 16.37915 | 4326 ft | 201 kts | 69° |
| 2026-05-04 12:34 | 41.03536 | 16.39652 | 4284 ft | 202 kts | 69° |
| 2026-05-04 12:34 | 41.04026 | 16.41369 | 4215 ft | 202 kts | 69° |
| 2026-05-04 12:35 | 41.04520 | 16.43107 | 4127 ft | 201 kts | 69° |
| 2026-05-04 12:35 | 41.05011 | 16.44837 | 4019 ft | 201 kts | 69° |
| 2026-05-04 12:35 | 41.05503 | 16.46569 | 3969 ft | 199 kts | 69° |
| 2026-05-04 12:35 | 41.05984 | 16.48267 | 3970 ft | 195 kts | 69° |
| 2026-05-04 12:36 | 41.06445 | 16.49894 | 3896 ft | 186 kts | 69° |
| 2026-05-04 12:36 | 41.06897 | 16.51490 | 3669 ft | 183 kts | 69° |
| 2026-05-04 12:36 | 41.07342 | 16.53063 | 3447 ft | 181 kts | 69° |
| 2026-05-04 12:36 | 41.07781 | 16.54615 | 3216 ft | 179 kts | 69° |
| 2026-05-04 12:37 | 41.08220 | 16.56161 | 3000 ft | 179 kts | 69° |
| 2026-05-04 12:37 | 41.08653 | 16.57690 | 2766 ft | 176 kts | 69° |
| 2026-05-04 12:37 | 41.09081 | 16.59203 | 2547 ft | 175 kts | 68° |
| 2026-05-04 12:37 | 41.09503 | 16.60699 | 2343 ft | 169 kts | 69° |
| 2026-05-04 12:38 | 41.09893 | 16.62074 | 2157 ft | 151 kts | 69° |
| 2026-05-04 12:38 | 41.10256 | 16.63356 | 1948 ft | 146 kts | 69° |
| 2026-05-04 12:38 | 41.10606 | 16.64588 | 1723 ft | 141 kts | 69° |
| 2026-05-04 12:38 | 41.10945 | 16.65793 | 1532 ft | 138 kts | 69° |
| 2026-05-04 12:39 | 41.11270 | 16.66982 | 1352 ft | 137 kts | 69° |
| 2026-05-04 12:39 | 41.11603 | 16.68156 | 1112 ft | 136 kts | 67° |
| 2026-05-04 12:39 | 41.11936 | 16.69327 | 926 ft | 135 kts | 68° |
| 2026-05-04 12:39 | 41.12262 | 16.70482 | 750 ft | 133 kts | 69° |
| 2026-05-04 12:40 | 41.12590 | 16.71633 | 597 ft | 132 kts | 70° |
| 2026-05-04 12:40 | 41.12917 | 16.72768 | 410 ft | 133 kts | 70° |
| 2026-05-04 12:40 | 41.13242 | 16.73918 | 271 ft | 132 kts | 69° |
| 2026-05-04 12:40 | 41.13558 | 16.75035 | 164 ft | 114 kts | 69° |
| 2026-05-04 12:41 | 41.13751 | 16.75706 | 154 ft | 44 kts | 69° |
| 2026-05-04 12:41 | 41.13847 | 16.76035 | 145 ft | 41 kts | 69° |
| 2026-05-04 12:41 | 41.13951 | 16.76402 | 127 ft | 36 kts | 69° |
| 2026-05-04 12:41 | 41.13995 | 16.76657 | 120 ft | 17 kts | 113° |
| 2026-05-04 12:42 | 41.13947 | 16.76785 | 119 ft | 11 kts | 118° |
| 2026-05-04 12:42 | 41.13878 | 16.76793 | 117 ft | 13 kts | 232° |
| 2026-05-04 12:42 | 41.13842 | 16.76681 | 122 ft | 13 kts | 241° |
| 2026-05-04 12:42 | 41.13809 | 16.76577 | 125 ft | 12 kts | 254° |
| 2026-05-04 12:43 | 41.13756 | 16.76552 | 130 ft | 10 kts | 137° |
| 2026-05-04 12:43 | 41.13692 | 16.76616 | 128 ft | 12 kts | 155° |
| 2026-05-04 12:43 | 41.13647 | 16.76614 | 134 ft | 5 kts | 231° |
| 2026-05-04 12:43 | 41.13656 | 16.76575 | 134 ft | 6 kts | 330° |
| 2026-05-04 12:44 | 41.13679 | 16.76579 | 132 ft | 2 kts | 10° |
| 2026-05-04 12:45 | 41.13699 | 16.76755 | 128 ft | 0 kts | 168° |